sensor_id;sensor_type;location;lat;lon;timestamp;pressure;altitude;pressure_sealevel;temperature;humidity
73453;BME280;61687;56.232;43.854;2022-10-31T00:02:07;98408.31;;;0.66;81.78
73453;BME280;61687;56.232;43.854;2022-10-31T00:04:33;98408.66;;;0.64;80.98
73453;BME280;61687;56.232;43.854;2022-10-31T00:06:59;98409.59;;;0.56;81.54
73453;BME280;61687;56.232;43.854;2022-10-31T00:09:25;98406.03;;;0.52;81.87
73453;BME280;61687;56.232;43.854;2022-10-31T00:11:50;98406.91;;;0.56;81.74
73453;BME280;61687;56.232;43.854;2022-10-31T00:14:16;98409.34;;;0.61;81.67
73453;BME280;61687;56.232;43.854;2022-10-31T00:16:42;98415.97;;;0.64;81.46
73453;BME280;61687;56.232;43.854;2022-10-31T00:19:08;98415.00;;;0.56;80.92
73453;BME280;61687;56.232;43.854;2022-10-31T00:21:35;98424.91;;;0.52;81.24
73453;BME280;61687;56.232;43.854;2022-10-31T00:24:01;98415.59;;;0.49;81.28
73453;BME280;61687;56.232;43.854;2022-10-31T00:26:29;98417.59;;;0.52;81.48
73453;BME280;61687;56.232;43.854;2022-10-31T00:28:56;98414.56;;;0.54;80.98
73453;BME280;61687;56.232;43.854;2022-10-31T00:31:22;98416.50;;;0.53;80.88
73453;BME280;61687;56.232;43.854;2022-10-31T00:33:49;98419.25;;;0.57;80.93
73453;BME280;61687;56.232;43.854;2022-10-31T00:36:18;98424.66;;;0.57;80.64
73453;BME280;61687;56.232;43.854;2022-10-31T00:38:46;98423.25;;;0.63;80.92
73453;BME280;61687;56.232;43.854;2022-10-31T00:41:14;98421.09;;;0.69;80.91
73453;BME280;61687;56.232;43.854;2022-10-31T00:43:41;98426.22;;;0.74;80.63
73453;BME280;61687;56.232;43.854;2022-10-31T00:46:08;98425.88;;;0.76;80.73
73453;BME280;61687;56.232;43.854;2022-10-31T00:48:34;98432.06;;;0.76;80.88
73453;BME280;61687;56.232;43.854;2022-10-31T00:51:00;98434.94;;;0.83;80.92
73453;BME280;61687;56.232;43.854;2022-10-31T00:53:26;98433.47;;;0.86;80.96
73453;BME280;61687;56.232;43.854;2022-10-31T00:55:52;98437.34;;;0.89;80.70
73453;BME280;61687;56.232;43.854;2022-10-31T00:58:18;98435.03;;;0.87;80.59
73453;BME280;61687;56.232;43.854;2022-10-31T01:00:47;98435.69;;;0.84;80.57
73453;BME280;61687;56.232;43.854;2022-10-31T01:03:25;98436.50;;;0.84;80.72
73453;BME280;61687;56.232;43.854;2022-10-31T01:05:56;98437.28;;;0.85;80.50
73453;BME280;61687;56.232;43.854;2022-10-31T01:08:23;98442.59;;;0.81;80.28
73453;BME280;61687;56.232;43.854;2022-10-31T01:11:15;98433.38;;;0.82;80.19
73453;BME280;61687;56.232;43.854;2022-10-31T01:13:42;98443.44;;;0.85;80.60
73453;BME280;61687;56.232;43.854;2022-10-31T01:16:13;98451.97;;;0.88;80.35
73453;BME280;61687;56.232;43.854;2022-10-31T01:18:39;98454.22;;;0.85;80.08
73453;BME280;61687;56.232;43.854;2022-10-31T01:21:13;98457.72;;;0.86;80.15
73453;BME280;61687;56.232;43.854;2022-10-31T01:23:40;98452.66;;;0.84;79.98
73453;BME280;61687;56.232;43.854;2022-10-31T01:26:15;98455.38;;;0.84;80.27
73453;BME280;61687;56.232;43.854;2022-10-31T01:28:49;98451.69;;;0.93;80.14
73453;BME280;61687;56.232;43.854;2022-10-31T01:31:17;98456.94;;;0.85;80.09
73453;BME280;61687;56.232;43.854;2022-10-31T01:33:43;98448.06;;;0.85;79.93
73453;BME280;61687;56.232;43.854;2022-10-31T01:38:58;98470.09;;;0.87;80.22
73453;BME280;61687;56.232;43.854;2022-10-31T01:41:27;98464.25;;;0.85;80.13
73453;BME280;61687;56.232;43.854;2022-10-31T01:43:59;98466.16;;;0.84;80.13
73453;BME280;61687;56.232;43.854;2022-10-31T01:46:39;98468.16;;;0.88;79.59
73453;BME280;61687;56.232;43.854;2022-10-31T01:49:34;98474.34;;;0.88;79.80
73453;BME280;61687;56.232;43.854;2022-10-31T01:52:28;98475.13;;;0.89;79.60
73453;BME280;61687;56.232;43.854;2022-10-31T01:55:03;98471.72;;;0.92;79.92
73453;BME280;61687;56.232;43.854;2022-10-31T01:57:31;98473.81;;;0.98;79.94
73453;BME280;61687;56.232;43.854;2022-10-31T02:00:03;98472.25;;;0.97;79.75
73453;BME280;61687;56.232;43.854;2022-10-31T02:02:39;98475.31;;;0.96;79.79
73453;BME280;61687;56.232;43.854;2022-10-31T02:05:09;98480.25;;;0.94;79.73
73453;BME280;61687;56.232;43.854;2022-10-31T02:10:33;98480.59;;;0.92;79.79
73453;BME280;61687;56.232;43.854;2022-10-31T02:13:02;98480.25;;;0.94;79.82
73453;BME280;61687;56.232;43.854;2022-10-31T02:15:30;98487.66;;;0.97;79.94
73453;BME280;61687;56.232;43.854;2022-10-31T02:17:57;98486.59;;;1.02;79.71
73453;BME280;61687;56.232;43.854;2022-10-31T02:20:25;98484.97;;;0.97;79.64
73453;BME280;61687;56.232;43.854;2022-10-31T02:23:09;98488.78;;;0.96;79.72
73453;BME280;61687;56.232;43.854;2022-10-31T02:36:58;98500.63;;;0.91;80.37
73453;BME280;61687;56.232;43.854;2022-10-31T02:39:38;98511.84;;;0.93;80.43
73453;BME280;61687;56.232;43.854;2022-10-31T02:45:21;98520.34;;;0.95;80.65
73453;BME280;61687;56.232;43.854;2022-10-31T02:47:53;98527.59;;;0.91;80.71
73453;BME280;61687;56.232;43.854;2022-10-31T02:50:35;98519.06;;;0.89;80.88
73453;BME280;61687;56.232;43.854;2022-10-31T02:53:03;98522.88;;;0.88;80.34
73453;BME280;61687;56.232;43.854;2022-10-31T02:58:14;98519.47;;;0.75;80.90
73453;BME280;61687;56.232;43.854;2022-10-31T03:03:45;98525.09;;;0.70;81.25
73453;BME280;61687;56.232;43.854;2022-10-31T03:12:08;98527.00;;;0.53;81.48
73453;BME280;61687;56.232;43.854;2022-10-31T03:14:42;98529.00;;;0.56;81.47
73453;BME280;61687;56.232;43.854;2022-10-31T03:17:35;98539.09;;;0.60;81.66
73453;BME280;61687;56.232;43.854;2022-10-31T03:20:04;98535.53;;;0.55;81.68
73453;BME280;61687;56.232;43.854;2022-10-31T03:22:33;98538.28;;;0.59;81.49
73453;BME280;61687;56.232;43.854;2022-10-31T03:25:01;98534.38;;;0.56;81.04
73453;BME280;61687;56.232;43.854;2022-10-31T03:27:33;98534.03;;;0.58;81.19
73453;BME280;61687;56.232;43.854;2022-10-31T03:30:03;98543.94;;;0.54;81.16
73453;BME280;61687;56.232;43.854;2022-10-31T03:32:42;98534.63;;;0.51;80.89
73453;BME280;61687;56.232;43.854;2022-10-31T03:35:12;98537.56;;;0.46;81.10
73453;BME280;61687;56.232;43.854;2022-10-31T03:37:40;98540.38;;;0.50;80.97
73453;BME280;61687;56.232;43.854;2022-10-31T03:40:12;98537.13;;;0.44;81.15
73453;BME280;61687;56.232;43.854;2022-10-31T03:42:44;98547.22;;;0.47;81.28
73453;BME280;61687;56.232;43.854;2022-10-31T03:45:23;98544.53;;;0.47;81.35
73453;BME280;61687;56.232;43.854;2022-10-31T03:47:50;98548.78;;;0.48;81.35
73453;BME280;61687;56.232;43.854;2022-10-31T03:50:18;98554.19;;;0.48;81.31
73453;BME280;61687;56.232;43.854;2022-10-31T03:55:48;98550.59;;;0.44;81.46
73453;BME280;61687;56.232;43.854;2022-10-31T03:58:22;98564.44;;;0.42;81.80
73453;BME280;61687;56.232;43.854;2022-10-31T04:00:54;98570.16;;;0.41;81.86
73453;BME280;61687;56.232;43.854;2022-10-31T04:03:33;98562.41;;;0.39;82.07
73453;BME280;61687;56.232;43.854;2022-10-31T04:06:06;98566.78;;;0.32;82.20
73453;BME280;61687;56.232;43.854;2022-10-31T04:08:41;98569.84;;;0.30;82.10
73453;BME280;61687;56.232;43.854;2022-10-31T04:11:13;98571.09;;;0.33;82.28
73453;BME280;61687;56.232;43.854;2022-10-31T04:13:47;98573.00;;;0.32;82.42
73453;BME280;61687;56.232;43.854;2022-10-31T04:16:20;98562.31;;;0.36;82.40
73453;BME280;61687;56.232;43.854;2022-10-31T04:18:47;98568.69;;;0.44;82.36
73453;BME280;61687;56.232;43.854;2022-10-31T04:21:15;98572.16;;;0.44;82.55
73453;BME280;61687;56.232;43.854;2022-10-31T04:23:42;98568.78;;;0.47;82.41
73453;BME280;61687;56.232;43.854;2022-10-31T04:26:20;98575.03;;;0.51;82.23
73453;BME280;61687;56.232;43.854;2022-10-31T04:28:46;98577.09;;;0.54;81.89
73453;BME280;61687;56.232;43.854;2022-10-31T04:31:12;98579.84;;;0.58;82.00
73453;BME280;61687;56.232;43.854;2022-10-31T04:33:39;98584.38;;;0.54;81.91
73453;BME280;61687;56.232;43.854;2022-10-31T04:36:05;98582.47;;;0.54;82.00
73453;BME280;61687;56.232;43.854;2022-10-31T04:38:31;98585.34;;;0.62;82.05
73453;BME280;61687;56.232;43.854;2022-10-31T04:40:58;98585.78;;;0.64;81.87
73453;BME280;61687;56.232;43.854;2022-10-31T04:43:44;98595.88;;;0.67;81.70
73453;BME280;61687;56.232;43.854;2022-10-31T04:46:10;98596.31;;;0.69;81.73
73453;BME280;61687;56.232;43.854;2022-10-31T04:48:36;98608.47;;;0.75;81.60
73453;BME280;61687;56.232;43.854;2022-10-31T04:51:04;98610.34;;;0.75;81.43
73453;BME280;61687;56.232;43.854;2022-10-31T04:53:31;98600.88;;;0.81;81.36
73453;BME280;61687;56.232;43.854;2022-10-31T04:56:17;98611.78;;;0.84;81.39
73453;BME280;61687;56.232;43.854;2022-10-31T04:58:46;98609.06;;;0.84;81.28
73453;BME280;61687;56.232;43.854;2022-10-31T05:01:12;98618.28;;;0.83;80.80
73453;BME280;61687;56.232;43.854;2022-10-31T05:03:38;98625.72;;;0.74;81.57
73453;BME280;61687;56.232;43.854;2022-10-31T05:06:07;98621.94;;;0.75;81.55
73453;BME280;61687;56.232;43.854;2022-10-31T05:08:34;98625.84;;;0.78;81.40
73453;BME280;61687;56.232;43.854;2022-10-31T05:11:04;98624.03;;;0.82;81.38
73453;BME280;61687;56.232;43.854;2022-10-31T05:13:30;98629.09;;;0.83;80.92
73453;BME280;61687;56.232;43.854;2022-10-31T05:16:19;98631.44;;;0.85;81.06
73453;BME280;61687;56.232;43.854;2022-10-31T05:19:23;98636.00;;;0.97;80.82
73453;BME280;61687;56.232;43.854;2022-10-31T05:22:15;98644.19;;;1.00;80.53
73453;BME280;61687;56.232;43.854;2022-10-31T05:24:42;98643.16;;;1.05;80.21
73453;BME280;61687;56.232;43.854;2022-10-31T05:27:09;98650.00;;;1.03;80.12
73453;BME280;61687;56.232;43.854;2022-10-31T05:29:35;98656.03;;;0.96;80.30
73453;BME280;61687;56.232;43.854;2022-10-31T05:32:02;98653.41;;;0.99;80.49
73453;BME280;61687;56.232;43.854;2022-10-31T05:34:47;98661.84;;;0.98;79.91
73453;BME280;61687;56.232;43.854;2022-10-31T05:37:42;98669.59;;;0.99;80.22
73453;BME280;61687;56.232;43.854;2022-10-31T05:40:11;98672.72;;;1.02;79.97
73453;BME280;61687;56.232;43.854;2022-10-31T05:42:41;98662.38;;;1.04;79.88
73453;BME280;61687;56.232;43.854;2022-10-31T05:45:09;98673.66;;;0.93;79.83
73453;BME280;61687;56.232;43.854;2022-10-31T05:47:54;98676.47;;;0.97;79.69
73453;BME280;61687;56.232;43.854;2022-10-31T05:50:41;98683.19;;;1.03;79.84
73453;BME280;61687;56.232;43.854;2022-10-31T05:53:09;98693.91;;;1.16;79.38
73453;BME280;61687;56.232;43.854;2022-10-31T05:55:37;98695.13;;;1.18;79.19
73453;BME280;61687;56.232;43.854;2022-10-31T05:58:23;98704.41;;;1.33;78.80
73453;BME280;61687;56.232;43.854;2022-10-31T06:00:57;98705.03;;;1.42;78.76
73453;BME280;61687;56.232;43.854;2022-10-31T06:03:24;98705.75;;;1.55;78.67
73453;BME280;61687;56.232;43.854;2022-10-31T06:06:02;98714.84;;;1.63;77.78
73453;BME280;61687;56.232;43.854;2022-10-31T06:08:40;98713.59;;;1.61;77.85
73453;BME280;61687;56.232;43.854;2022-10-31T06:11:12;98713.69;;;1.64;77.33
73453;BME280;61687;56.232;43.854;2022-10-31T06:13:57;98710.72;;;1.53;77.78
73453;BME280;61687;56.232;43.854;2022-10-31T06:16:29;98720.22;;;1.63;77.92
73453;BME280;61687;56.232;43.854;2022-10-31T06:18:59;98725.72;;;1.67;77.21
73453;BME280;61687;56.232;43.854;2022-10-31T06:21:25;98722.56;;;1.65;77.46
73453;BME280;61687;56.232;43.854;2022-10-31T06:23:51;98719.28;;;1.71;77.87
73453;BME280;61687;56.232;43.854;2022-10-31T06:26:43;98724.19;;;1.82;77.39
73453;BME280;61687;56.232;43.854;2022-10-31T06:29:09;98723.97;;;1.75;76.47
73453;BME280;61687;56.232;43.854;2022-10-31T06:31:56;98726.84;;;1.66;76.96
73453;BME280;61687;56.232;43.854;2022-10-31T06:34:22;98736.34;;;1.60;77.06
73453;BME280;61687;56.232;43.854;2022-10-31T06:36:48;98737.13;;;1.60;77.35
73453;BME280;61687;56.232;43.854;2022-10-31T06:39:14;98738.34;;;1.63;77.46
73453;BME280;61687;56.232;43.854;2022-10-31T06:41:40;98730.50;;;1.74;76.58
73453;BME280;61687;56.232;43.854;2022-10-31T06:44:09;98740.53;;;1.73;76.43
73453;BME280;61687;56.232;43.854;2022-10-31T06:46:53;98749.34;;;1.70;76.64
73453;BME280;61687;56.232;43.854;2022-10-31T06:49:42;98755.50;;;1.70;76.66
73453;BME280;61687;56.232;43.854;2022-10-31T06:52:12;98758.22;;;1.70;76.59
73453;BME280;61687;56.232;43.854;2022-10-31T06:54:38;98758.56;;;1.69;76.68
73453;BME280;61687;56.232;43.854;2022-10-31T06:57:04;98764.31;;;1.67;77.00
73453;BME280;61687;56.232;43.854;2022-10-31T06:59:30;98753.19;;;1.85;76.94
73453;BME280;61687;56.232;43.854;2022-10-31T07:02:26;98759.31;;;1.98;76.44
73453;BME280;61687;56.232;43.854;2022-10-31T07:04:52;98756.50;;;2.10;76.19
73453;BME280;61687;56.232;43.854;2022-10-31T07:07:18;98761.03;;;2.06;75.58
73453;BME280;61687;56.232;43.854;2022-10-31T07:09:46;98766.44;;;2.06;75.48
73453;BME280;61687;56.232;43.854;2022-10-31T07:12:15;98764.09;;;2.05;76.15
73453;BME280;61687;56.232;43.854;2022-10-31T07:14:48;98772.44;;;1.99;75.35
73453;BME280;61687;56.232;43.854;2022-10-31T07:17:14;98773.50;;;2.11;75.29
73453;BME280;61687;56.232;43.854;2022-10-31T07:19:43;98776.38;;;2.18;75.33
73453;BME280;61687;56.232;43.854;2022-10-31T07:22:10;98772.03;;;2.13;74.53
73453;BME280;61687;56.232;43.854;2022-10-31T07:24:37;98771.94;;;2.10;74.03
73453;BME280;61687;56.232;43.854;2022-10-31T07:27:22;98781.06;;;1.89;74.20
73453;BME280;61687;56.232;43.854;2022-10-31T07:29:48;98782.81;;;1.97;74.30
73453;BME280;61687;56.232;43.854;2022-10-31T07:32:15;98783.25;;;1.99;74.51
73453;BME280;61687;56.232;43.854;2022-10-31T07:34:47;98785.03;;;2.08;73.45
73453;BME280;61687;56.232;43.854;2022-10-31T07:37:28;98783.63;;;2.14;73.83
73453;BME280;61687;56.232;43.854;2022-10-31T07:39:55;98790.00;;;2.22;73.47
73453;BME280;61687;56.232;43.854;2022-10-31T07:42:21;98802.28;;;2.19;74.01
73453;BME280;61687;56.232;43.854;2022-10-31T07:44:49;98801.50;;;2.19;73.94
73453;BME280;61687;56.232;43.854;2022-10-31T07:47:52;98797.22;;;2.18;73.81
73453;BME280;61687;56.232;43.854;2022-10-31T07:50:36;98804.97;;;2.19;73.49
73453;BME280;61687;56.232;43.854;2022-10-31T07:53:38;98801.84;;;2.17;73.26
73453;BME280;61687;56.232;43.854;2022-10-31T07:56:29;98806.03;;;2.31;73.17
73453;BME280;61687;56.232;43.854;2022-10-31T07:58:55;98803.78;;;2.33;72.58
73453;BME280;61687;56.232;43.854;2022-10-31T08:01:21;98808.47;;;2.36;72.92
73453;BME280;61687;56.232;43.854;2022-10-31T08:04:04;98805.69;;;2.32;72.35
73453;BME280;61687;56.232;43.854;2022-10-31T08:06:49;98798.69;;;2.31;71.06
73453;BME280;61687;56.232;43.854;2022-10-31T08:09:25;98810.16;;;2.24;71.95
73453;BME280;61687;56.232;43.854;2022-10-31T08:11:53;98814.25;;;2.34;71.05
73453;BME280;61687;56.232;43.854;2022-10-31T08:14:19;98817.44;;;2.40;70.86
73453;BME280;61687;56.232;43.854;2022-10-31T08:16:45;98816.41;;;2.45;71.06
73453;BME280;61687;56.232;43.854;2022-10-31T08:19:12;98821.75;;;2.57;71.13
73453;BME280;61687;56.232;43.854;2022-10-31T08:21:39;98815.00;;;2.67;70.75
73453;BME280;61687;56.232;43.854;2022-10-31T08:24:07;98831.59;;;2.65;69.27
73453;BME280;61687;56.232;43.854;2022-10-31T08:26:35;98833.88;;;2.47;69.45
73453;BME280;61687;56.232;43.854;2022-10-31T08:29:03;98834.28;;;2.49;69.89
73453;BME280;61687;56.232;43.854;2022-10-31T08:31:32;98834.09;;;2.42;69.43
73453;BME280;61687;56.232;43.854;2022-10-31T08:34:16;98841.06;;;2.27;69.37
73453;BME280;61687;56.232;43.854;2022-10-31T08:37:02;98851.91;;;2.27;69.54
73453;BME280;61687;56.232;43.854;2022-10-31T08:39:36;98843.88;;;2.14;69.17
73453;BME280;61687;56.232;43.854;2022-10-31T08:42:03;98855.59;;;2.06;69.61
73453;BME280;61687;56.232;43.854;2022-10-31T08:44:30;98852.84;;;2.03;69.68
73453;BME280;61687;56.232;43.854;2022-10-31T08:46:56;98856.75;;;2.05;70.20
73453;BME280;61687;56.232;43.854;2022-10-31T08:49:22;98873.25;;;2.16;70.45
73453;BME280;61687;56.232;43.854;2022-10-31T08:51:48;98857.66;;;2.25;70.01
73453;BME280;61687;56.232;43.854;2022-10-31T08:54:14;98869.69;;;2.28;68.77
73453;BME280;61687;56.232;43.854;2022-10-31T08:56:56;98868.03;;;2.23;69.01
73453;BME280;61687;56.232;43.854;2022-10-31T08:59:54;98867.19;;;2.35;69.39
73453;BME280;61687;56.232;43.854;2022-10-31T09:02:25;98869.03;;;2.47;68.91
73453;BME280;61687;56.232;43.854;2022-10-31T09:04:56;98869.94;;;2.39;67.30
73453;BME280;61687;56.232;43.854;2022-10-31T09:07:21;98879.19;;;2.38;67.30
73453;BME280;61687;56.232;43.854;2022-10-31T09:09:48;98876.16;;;2.39;66.96
73453;BME280;61687;56.232;43.854;2022-10-31T09:12:14;98880.94;;;2.30;67.57
73453;BME280;61687;56.232;43.854;2022-10-31T09:15:03;98898.50;;;2.36;67.65
73453;BME280;61687;56.232;43.854;2022-10-31T09:17:49;98898.38;;;2.33;65.61
73453;BME280;61687;56.232;43.854;2022-10-31T09:20:38;98892.69;;;2.22;64.76
73453;BME280;61687;56.232;43.854;2022-10-31T09:23:17;98892.97;;;2.17;65.70
73453;BME280;61687;56.232;43.854;2022-10-31T09:25:43;98899.84;;;2.30;66.44
73453;BME280;61687;56.232;43.854;2022-10-31T09:28:28;98902.41;;;2.39;66.66
73453;BME280;61687;56.232;43.854;2022-10-31T09:30:58;98896.13;;;2.35;67.52
73453;BME280;61687;56.232;43.854;2022-10-31T09:33:42;98904.66;;;2.37;67.18
73453;BME280;61687;56.232;43.854;2022-10-31T09:36:28;98908.78;;;2.47;67.59
73453;BME280;61687;56.232;43.854;2022-10-31T09:38:54;98906.88;;;2.47;67.36
73453;BME280;61687;56.232;43.854;2022-10-31T09:44:13;98911.31;;;2.55;67.39
73453;BME280;61687;56.232;43.854;2022-10-31T09:46:55;98913.31;;;2.58;67.37
73453;BME280;61687;56.232;43.854;2022-10-31T09:52:30;98924.25;;;2.62;67.35
73453;BME280;61687;56.232;43.854;2022-10-31T09:57:33;98930.31;;;2.43;68.06
73453;BME280;61687;56.232;43.854;2022-10-31T10:00:01;98931.09;;;2.27;69.00
73453;BME280;61687;56.232;43.854;2022-10-31T10:02:51;98943.63;;;2.20;69.13
73453;BME280;61687;56.232;43.854;2022-10-31T10:08:17;98954.81;;;2.06;69.73
73453;BME280;61687;56.232;43.854;2022-10-31T10:21:36;98964.19;;;1.96;69.76
73453;BME280;61687;56.232;43.854;2022-10-31T10:32:02;98964.28;;;1.99;69.66
73453;BME280;61687;56.232;43.854;2022-10-31T10:34:38;98966.09;;;1.95;70.13
73453;BME280;61687;56.232;43.854;2022-10-31T10:37:17;98970.72;;;1.95;69.76
73453;BME280;61687;56.232;43.854;2022-10-31T10:39:50;98972.31;;;1.96;69.57
73453;BME280;61687;56.232;43.854;2022-10-31T10:42:16;98982.31;;;1.95;69.57
73453;BME280;61687;56.232;43.854;2022-10-31T10:45:16;98977.97;;;1.78;70.31
73453;BME280;61687;56.232;43.854;2022-10-31T10:48:14;98966.78;;;1.92;70.54
73453;BME280;61687;56.232;43.854;2022-10-31T10:50:46;98978.69;;;2.04;70.39
73453;BME280;61687;56.232;43.854;2022-10-31T10:58:27;98974.88;;;1.92;71.03
73453;BME280;61687;56.232;43.854;2022-10-31T11:00:53;98973.75;;;1.93;71.35
73453;BME280;61687;56.232;43.854;2022-10-31T11:03:20;98969.81;;;1.91;71.73
73453;BME280;61687;56.232;43.854;2022-10-31T11:05:53;98971.75;;;1.90;71.72
73453;BME280;61687;56.232;43.854;2022-10-31T11:13:44;98981.41;;;1.91;72.17
73453;BME280;61687;56.232;43.854;2022-10-31T11:21:46;98983.09;;;1.96;72.34
73453;BME280;61687;56.232;43.854;2022-10-31T11:24:15;98988.16;;;1.97;72.60
73453;BME280;61687;56.232;43.854;2022-10-31T11:26:43;98983.06;;;2.08;72.73
73453;BME280;61687;56.232;43.854;2022-10-31T11:29:25;98987.00;;;2.11;72.59
73453;BME280;61687;56.232;43.854;2022-10-31T11:31:53;98985.56;;;2.01;72.84
73453;BME280;61687;56.232;43.854;2022-10-31T11:36:53;98986.13;;;1.94;73.26
73453;BME280;61687;56.232;43.854;2022-10-31T11:39:22;98987.63;;;1.92;73.77
73453;BME280;61687;56.232;43.854;2022-10-31T11:41:50;98994.59;;;1.93;74.14
73453;BME280;61687;56.232;43.854;2022-10-31T11:49:18;99009.25;;;1.67;76.29
73453;BME280;61687;56.232;43.854;2022-10-31T11:51:49;99006.03;;;1.49;78.60
73453;BME280;61687;56.232;43.854;2022-10-31T11:54:45;99010.63;;;1.36;79.09
73453;BME280;61687;56.232;43.854;2022-10-31T11:57:32;99005.66;;;1.25;80.10
73453;BME280;61687;56.232;43.854;2022-10-31T12:00:02;99004.69;;;1.18;80.34
73453;BME280;61687;56.232;43.854;2022-10-31T12:02:40;99002.41;;;1.07;80.76
73453;BME280;61687;56.232;43.854;2022-10-31T12:05:18;99004.19;;;1.03;80.93
73453;BME280;61687;56.232;43.854;2022-10-31T12:07:45;99004.06;;;0.99;81.20
73453;BME280;61687;56.232;43.854;2022-10-31T12:10:12;99003.63;;;0.97;81.48
73453;BME280;61687;56.232;43.854;2022-10-31T12:15:36;99002.63;;;1.02;81.56
73453;BME280;61687;56.232;43.854;2022-10-31T12:21:01;99005.66;;;0.88;82.21
73453;BME280;61687;56.232;43.854;2022-10-31T12:37:50;99007.19;;;0.77;83.02
73453;BME280;61687;56.232;43.854;2022-10-31T12:43:09;99011.66;;;0.73;83.12
73453;BME280;61687;56.232;43.854;2022-10-31T12:45:58;99008.63;;;0.74;83.19
73453;BME280;61687;56.232;43.854;2022-10-31T12:48:28;99021.19;;;0.70;83.12
73453;BME280;61687;56.232;43.854;2022-10-31T12:56:57;99022.00;;;0.70;83.33
73453;BME280;61687;56.232;43.854;2022-10-31T13:07:30;99023.78;;;0.66;83.42
73453;BME280;61687;56.232;43.854;2022-10-31T13:10:15;99025.38;;;0.67;83.33
73453;BME280;61687;56.232;43.854;2022-10-31T13:12:43;99018.06;;;0.68;83.43
73453;BME280;61687;56.232;43.854;2022-10-31T13:15:18;99028.97;;;0.71;83.40
73453;BME280;61687;56.232;43.854;2022-10-31T13:17:48;99018.41;;;0.66;83.66
73453;BME280;61687;56.232;43.854;2022-10-31T13:22:49;99019.63;;;0.69;83.47
73453;BME280;61687;56.232;43.854;2022-10-31T13:25:25;99029.28;;;0.70;83.37
73453;BME280;61687;56.232;43.854;2022-10-31T13:30:37;99032.78;;;0.70;83.47
73453;BME280;61687;56.232;43.854;2022-10-31T13:33:27;99038.50;;;0.69;83.46
73453;BME280;61687;56.232;43.854;2022-10-31T13:38:41;99026.69;;;0.61;83.70
73453;BME280;61687;56.232;43.854;2022-10-31T13:44:27;99041.41;;;0.64;83.87
73453;BME280;61687;56.232;43.854;2022-10-31T13:46:56;99029.72;;;0.60;83.90
73453;BME280;61687;56.232;43.854;2022-10-31T13:52:11;99031.53;;;0.68;83.54
73453;BME280;61687;56.232;43.854;2022-10-31T13:54:49;99034.00;;;0.73;83.44
73453;BME280;61687;56.232;43.854;2022-10-31T13:59:55;99036.06;;;0.76;83.17
73453;BME280;61687;56.232;43.854;2022-10-31T14:02:26;99041.25;;;0.81;82.99
73453;BME280;61687;56.232;43.854;2022-10-31T14:05:05;99049.13;;;0.87;83.11
73453;BME280;61687;56.232;43.854;2022-10-31T14:07:32;99048.44;;;0.90;82.83
73453;BME280;61687;56.232;43.854;2022-10-31T14:10:05;99044.97;;;0.89;82.64
73453;BME280;61687;56.232;43.854;2022-10-31T14:12:48;99050.69;;;0.88;82.83
73453;BME280;61687;56.232;43.854;2022-10-31T14:15:18;99059.66;;;0.79;82.99
73453;BME280;61687;56.232;43.854;2022-10-31T14:18:05;99053.38;;;0.75;83.14
73453;BME280;61687;56.232;43.854;2022-10-31T14:20:42;99064.16;;;0.75;83.32
73453;BME280;61687;56.232;43.854;2022-10-31T14:28:52;99064.31;;;0.91;82.76
73453;BME280;61687;56.232;43.854;2022-10-31T14:31:42;99058.56;;;0.93;82.77
73453;BME280;61687;56.232;43.854;2022-10-31T14:34:33;99063.97;;;0.93;82.77
73453;BME280;61687;56.232;43.854;2022-10-31T14:53:04;99080.38;;;0.88;82.74
73453;BME280;61687;56.232;43.854;2022-10-31T14:55:33;99083.06;;;0.88;82.85
73453;BME280;61687;56.232;43.854;2022-10-31T14:58:05;99072.72;;;0.90;82.78
73453;BME280;61687;56.232;43.854;2022-10-31T15:00:33;99082.75;;;0.89;82.83
73453;BME280;61687;56.232;43.854;2022-10-31T15:03:20;99082.53;;;0.94;82.63
73453;BME280;61687;56.232;43.854;2022-10-31T15:05:51;99067.25;;;0.98;82.55
73453;BME280;61687;56.232;43.854;2022-10-31T15:08:38;99066.47;;;0.98;82.46
73453;BME280;61687;56.232;43.854;2022-10-31T15:11:35;99076.13;;;0.99;82.45
73453;BME280;61687;56.232;43.854;2022-10-31T15:14:05;99075.00;;;1.00;82.58
73453;BME280;61687;56.232;43.854;2022-10-31T15:16:43;99075.69;;;0.97;82.41
73453;BME280;61687;56.232;43.854;2022-10-31T15:19:17;99078.25;;;0.93;82.51
73453;BME280;61687;56.232;43.854;2022-10-31T15:21:45;99083.19;;;0.91;82.68
73453;BME280;61687;56.232;43.854;2022-10-31T15:24:15;99084.41;;;0.94;82.72
73453;BME280;61687;56.232;43.854;2022-10-31T15:26:51;99087.78;;;0.91;82.85
73453;BME280;61687;56.232;43.854;2022-10-31T15:29:20;99089.81;;;0.94;82.85
73453;BME280;61687;56.232;43.854;2022-10-31T15:32:09;99098.25;;;0.92;82.85
73453;BME280;61687;56.232;43.854;2022-10-31T15:34:42;99100.50;;;0.90;83.01
73453;BME280;61687;56.232;43.854;2022-10-31T15:37:16;99106.47;;;0.96;82.90
73453;BME280;61687;56.232;43.854;2022-10-31T15:39:43;99095.69;;;0.96;82.68
73453;BME280;61687;56.232;43.854;2022-10-31T15:42:27;99101.41;;;0.94;82.96
73453;BME280;61687;56.232;43.854;2022-10-31T15:45:24;99095.88;;;0.91;82.91
73453;BME280;61687;56.232;43.854;2022-10-31T15:47:59;99093.19;;;0.91;82.95
73453;BME280;61687;56.232;43.854;2022-10-31T15:53:01;99109.72;;;0.89;83.22
73453;BME280;61687;56.232;43.854;2022-10-31T15:55:30;99113.97;;;0.90;83.39
73453;BME280;61687;56.232;43.854;2022-10-31T15:58:04;99106.66;;;0.91;83.46
73453;BME280;61687;56.232;43.854;2022-10-31T16:00:37;99118.38;;;0.95;83.34
73453;BME280;61687;56.232;43.854;2022-10-31T16:05:47;99113.91;;;0.99;83.20
73453;BME280;61687;56.232;43.854;2022-10-31T16:08:46;99102.19;;;0.95;83.18
73453;BME280;61687;56.232;43.854;2022-10-31T16:11:17;99105.34;;;0.97;83.15
73453;BME280;61687;56.232;43.854;2022-10-31T16:14:01;99111.22;;;0.99;83.20
73453;BME280;61687;56.232;43.854;2022-10-31T16:16:28;99105.91;;;1.03;83.30
73453;BME280;61687;56.232;43.854;2022-10-31T16:18:55;99123.50;;;1.09;83.07
73453;BME280;61687;56.232;43.854;2022-10-31T16:21:31;99137.63;;;1.06;83.13